Time;durP1;ratioP1;P1;durP2;ratioP2;P2;SDS_P1;SDS_P2;PMS_P1;PMS_P2;Temp;Humidity;BMP_temperature;BMP_pressure;BME280_temperature;BME280_humidity;BME280_pressure;Samples;Min_cycle;Max_cycle;Signal;HPM_P1;HPM_P2
2021/11/12 00:14:44;;;;;;;6.68;4.32;;;;;;;;;;5071241;28;20025;-64
2021/11/12 00:17:11;;;;;;;6.22;5.00;;;;;;;;;;5071283;28;20027;-59
2021/11/12 00:19:37;;;;;;;6.13;5.05;;;;;;;;;;5071012;28;20025;-65
2021/11/12 00:22:03;;;;;;;5.88;4.55;;;;;;;;;;5064741;28;20021;-64
2021/11/12 00:24:30;;;;;;;6.35;4.78;;;;;;;;;;5050600;28;20961;-64
2021/11/12 00:26:56;;;;;;;5.43;4.82;;;;;;;;;;5051195;28;20029;-62
2021/11/12 00:29:22;;;;;;;6.72;5.15;;;;;;;;;;5070187;28;20036;-64
2021/11/12 00:32:19;;;;;;;7.57;5.15;;;;;;;;;;5071072;28;20565;-65
2021/11/12 00:45:29;;;;;;;6.88;5.18;;;;;;;;;;5070491;28;20039;-64
2021/11/12 00:48:10;;;;;;;5.78;5.18;;;;;;;;;;5070701;28;20469;-65
2021/11/12 00:51:09;;;;;;;6.47;4.85;;;;;;;;;;5070595;28;20101;-64
2021/11/12 00:55:48;;;;;;;7.13;4.78;;;;;;;;;;5071183;28;20029;-64
2021/11/12 00:58:15;;;;;;;6.32;4.78;;;;;;;;;;5070164;28;20037;-60
2021/11/12 01:00:43;;;;;;;6.60;5.00;;;;;;;;;;5075080;28;20099;-64
2021/11/12 01:03:09;;;;;;;6.13;4.10;;;;;;;;;;5075259;28;20024;-63
2021/11/12 01:05:36;;;;;;;5.45;4.85;;;;;;;;;;5073788;28;20432;-64
2021/11/12 01:08:03;;;;;;;6.15;4.15;;;;;;;;;;5074497;28;20029;-65
2021/11/12 01:10:30;;;;;;;5.75;4.72;;;;;;;;;;5073336;28;20024;-64
2021/11/12 01:12:58;;;;;;;4.40;3.88;;;;;;;;;;5074560;28;20062;-64
2021/11/12 01:15:24;;;;;;;6.85;5.03;;;;;;;;;;5073443;28;20040;-64
2021/11/12 01:17:51;;;;;;;5.15;4.40;;;;;;;;;;5074203;28;20037;-65
2021/11/12 01:20:17;;;;;;;5.53;4.57;;;;;;;;;;5073602;28;20023;-63
2021/11/12 01:22:44;;;;;;;5.53;4.53;;;;;;;;;;5074289;28;20083;-64
2021/11/12 01:25:11;;;;;;;4.60;3.97;;;;;;;;;;5073615;28;20029;-63
2021/11/12 01:27:38;;;;;;;6.45;4.32;;;;;;;;;;5073564;28;20033;-64
2021/11/12 01:30:05;;;;;;;6.65;4.57;;;;;;;;;;5073991;28;20059;-65
2021/11/12 01:32:31;;;;;;;6.10;4.65;;;;;;;;;;5073109;28;20024;-64
2021/11/12 01:34:59;;;;;;;5.95;4.72;;;;;;;;;;5073623;28;20080;-64
2021/11/12 01:37:26;;;;;;;5.47;4.45;;;;;;;;;;5072495;28;20029;-64
2021/11/12 01:39:55;;;;;;;6.10;4.47;;;;;;;;;;5074027;28;20012;-64
2021/11/12 01:42:23;;;;;;;5.35;4.03;;;;;;;;;;5073040;28;20023;-64
2021/11/12 01:44:57;;;;;;;6.00;4.53;;;;;;;;;;5073400;28;20031;-62
2021/11/12 01:47:36;;;;;;;5.32;4.30;;;;;;;;;;5072838;28;20021;-64
2021/11/12 01:50:08;;;;;;;6.18;5.28;;;;;;;;;;5072321;28;20608;-64
2021/11/12 01:52:39;;;;;;;6.38;4.80;;;;;;;;;;5072976;28;20020;-64
2021/11/12 02:00:11;;;;;;;5.03;4.30;;;;;;;;;;5073456;28;20033;-65
2021/11/12 02:02:38;;;;;;;6.15;4.35;;;;;;;;;;5072033;28;20465;-64
2021/11/12 02:05:04;;;;;;;6.13;4.50;;;;;;;;;;5072579;28;20043;-64
2021/11/12 02:07:33;;;;;;;5.10;4.13;;;;;;;;;;5072474;28;20035;-64
2021/11/12 02:09:59;;;;;;;4.75;3.90;;;;;;;;;;5073066;28;20513;-64
2021/11/12 02:12:32;;;;;;;4.88;3.83;;;;;;;;;;5072539;28;20377;-64
2021/11/12 02:14:59;;;;;;;5.28;4.20;;;;;;;;;;5072978;28;20036;-63
2021/11/12 02:17:33;;;;;;;5.22;4.65;;;;;;;;;;5071997;28;20489;-64
2021/11/12 02:20:06;;;;;;;5.63;4.22;;;;;;;;;;5073393;28;20440;-65
2021/11/12 02:22:34;;;;;;;5.03;3.88;;;;;;;;;;5061799;28;20487;-65
2021/11/12 02:25:14;;;;;;;4.82;3.67;;;;;;;;;;5065738;28;20385;-64
2021/11/12 02:27:53;;;;;;;5.88;4.55;;;;;;;;;;5072195;28;20025;-65
2021/11/12 02:30:23;;;;;;;4.95;4.13;;;;;;;;;;5071590;28;20477;-64
2021/11/12 02:33:04;;;;;;;5.88;4.18;;;;;;;;;;5072739;28;20029;-65
2021/11/12 02:35:31;;;;;;;4.95;4.20;;;;;;;;;;5071748;28;20106;-64
2021/11/12 02:37:58;;;;;;;5.72;4.38;;;;;;;;;;5072644;28;20099;-64
2021/11/12 02:40:24;;;;;;;4.72;3.58;;;;;;;;;;5072116;28;20110;-64
2021/11/12 02:42:51;;;;;;;5.03;4.38;;;;;;;;;;5072686;28;20025;-65
2021/11/12 02:45:17;;;;;;;5.10;3.72;;;;;;;;;;5072227;28;20477;-58
2021/11/12 02:47:43;;;;;;;5.28;3.75;;;;;;;;;;5072300;28;20068;-64
2021/11/12 02:50:10;;;;;;;4.57;3.63;;;;;;;;;;5072648;28;20376;-64
2021/11/12 02:52:37;;;;;;;5.95;4.53;;;;;;;;;;5071730;28;20012;-64
2021/11/12 02:55:03;;;;;;;6.38;4.57;;;;;;;;;;5072538;28;20024;-65
2021/11/12 02:57:34;;;;;;;5.50;3.97;;;;;;;;;;5071298;28;20363;-64
2021/11/12 03:00:00;;;;;;;5.90;4.50;;;;;;;;;;5072354;28;20029;-64
2021/11/12 03:02:26;;;;;;;5.70;4.32;;;;;;;;;;5071460;28;20025;-64
2021/11/12 03:04:52;;;;;;;5.57;4.13;;;;;;;;;;5072045;28;20024;-64
2021/11/12 03:07:18;;;;;;;6.72;3.65;;;;;;;;;;5071367;28;20028;-58
2021/11/12 03:09:44;;;;;;;4.75;3.95;;;;;;;;;;5072264;28;20513;-64
2021/11/12 03:12:10;;;;;;;4.95;4.13;;;;;;;;;;5071918;28;20469;-65
2021/11/12 03:14:36;;;;;;;5.45;3.92;;;;;;;;;;5071104;28;20033;-64
2021/11/12 03:17:02;;;;;;;4.45;4.00;;;;;;;;;;5072036;28;20027;-65
2021/11/12 03:19:29;;;;;;;5.03;3.92;;;;;;;;;;5070854;28;20473;-65
2021/11/12 03:22:17;;;;;;;4.75;3.90;;;;;;;;;;5065606;28;20029;-65
2021/11/12 03:24:48;;;;;;;5.53;4.25;;;;;;;;;;5062456;28;20021;-65
2021/11/12 04:20:55;;;;;;;6.03;3.95;;;;;;;;;;5069602;28;20510;-64
2021/11/12 04:39:57;;;;;;;4.13;3.42;;;;;;;;;;5070571;28;20149;-65
2021/11/12 05:10:01;;;;;;;4.55;3.63;;;;;;;;;;5074291;28;20546;-64
2021/11/12 05:56:10;;;;;;;4.55;3.53;;;;;;;;;;5052563;28;20064;-63
2021/11/12 05:58:36;;;;;;;4.40;3.72;;;;;;;;;;5050342;28;20021;-63
2021/11/12 06:01:03;;;;;;;5.07;3.55;;;;;;;;;;5052089;28;20033;-63
2021/11/12 06:03:30;;;;;;;4.40;3.40;;;;;;;;;;5048586;28;20029;-63
2021/11/12 06:05:56;;;;;;;5.43;3.90;;;;;;;;;;5053137;28;20071;-63
2021/11/12 06:08:28;;;;;;;5.35;3.92;;;;;;;;;;5052066;28;20047;-60
2021/11/12 06:10:54;;;;;;;6.38;3.65;;;;;;;;;;5051542;28;20363;-65
2021/11/12 06:13:20;;;;;;;4.95;3.80;;;;;;;;;;5052770;28;20021;-62
2021/11/12 06:15:46;;;;;;;6.65;3.67;;;;;;;;;;5053477;28;20178;-63
2021/11/12 06:18:12;;;;;;;4.57;3.67;;;;;;;;;;5071980;28;20020;-63
2021/11/12 06:20:38;;;;;;;5.22;3.78;;;;;;;;;;5071382;28;20078;-63
2021/11/12 06:23:05;;;;;;;5.22;3.67;;;;;;;;;;5056748;28;20094;-63
2021/11/12 06:25:32;;;;;;;4.82;3.40;;;;;;;;;;5067999;28;20408;-63
2021/11/12 06:27:58;;;;;;;6.00;3.95;;;;;;;;;;5072235;28;20034;-63
2021/11/12 06:30:25;;;;;;;4.82;3.38;;;;;;;;;;5071428;28;20473;-59
2021/11/12 06:32:51;;;;;;;5.25;4.13;;;;;;;;;;5071957;28;20032;-62
2021/11/12 06:35:17;;;;;;;4.13;3.10;;;;;;;;;;5071166;28;20107;-63
2021/11/12 06:37:43;;;;;;;5.35;3.10;;;;;;;;;;5071243;28;20032;-64
2021/11/12 06:40:17;;;;;;;5.03;3.35;;;;;;;;;;5060360;28;20029;-63
2021/11/12 06:42:58;;;;;;;4.55;3.50;;;;;;;;;;5065156;28;20036;-56
2021/11/12 06:50:37;;;;;;;8.32;3.38;;;;;;;;;;5070770;28;20039;-50
2021/11/12 06:53:04;;;;;;;5.78;3.58;;;;;;;;;;5070181;28;20062;-59
2021/11/12 06:55:30;;;;;;;13.38;4.43;;;;;;;;;;5070344;28;20064;-55
2021/11/12 06:57:56;;;;;;;8.80;4.38;;;;;;;;;;5069905;28;20021;-58
2021/11/12 07:00:25;;;;;;;7.47;3.42;;;;;;;;;;5067788;28;20113;-57
2021/11/12 07:02:51;;;;;;;7.72;3.90;;;;;;;;;;5071049;28;20378;-55
2021/11/12 07:05:17;;;;;;;7.63;3.80;;;;;;;;;;5070823;28;20028;-52
2021/11/12 07:07:45;;;;;;;5.53;3.65;;;;;;;;;;5070413;28;20024;-57
2021/11/12 07:10:11;;;;;;;6.20;3.53;;;;;;;;;;5071383;28;20033;-51
2021/11/12 07:12:37;;;;;;;11.75;4.13;;;;;;;;;;5070688;28;20024;-51
2021/11/12 07:15:04;;;;;;;7.80;3.63;;;;;;;;;;5071080;28;20032;-53
2021/11/12 07:17:30;;;;;;;6.30;3.40;;;;;;;;;;5070049;28;20052;-48
2021/11/12 07:19:56;;;;;;;7.45;4.07;;;;;;;;;;5051429;28;20708;-50
2021/11/12 07:22:22;;;;;;;14.13;4.50;;;;;;;;;;5052088;28;20485;-52
2021/11/12 07:24:48;;;;;;;7.53;4.72;;;;;;;;;;5064888;28;20497;-52
2021/11/12 07:27:14;;;;;;;7.80;4.55;;;;;;;;;;5059466;28;20029;-57
2021/11/12 07:29:44;;;;;;;9.05;3.67;;;;;;;;;;5053706;28;20033;-55
2021/11/12 07:32:11;;;;;;;8.13;4.20;;;;;;;;;;5069591;28;20373;-54
2021/11/12 07:34:39;;;;;;;6.30;3.83;;;;;;;;;;5049967;28;20073;-52
2021/11/12 07:37:11;;;;;;;6.38;3.72;;;;;;;;;;5030873;28;20041;-51
2021/11/12 07:39:48;;;;;;;5.65;3.67;;;;;;;;;;5030368;28;20171;-52
2021/11/12 07:48:06;;;;;;;7.28;4.10;;;;;;;;;;5052428;28;20025;-55
2021/11/12 07:50:35;;;;;;;4.78;3.40;;;;;;;;;;5054358;28;20082;-53
2021/11/12 07:53:01;;;;;;;3.95;3.35;;;;;;;;;;5070716;28;20021;-49
2021/11/12 07:55:27;;;;;;;7.53;3.75;;;;;;;;;;5069180;28;20039;-58
2021/11/12 07:57:53;;;;;;;5.05;3.08;;;;;;;;;;5069434;28;20028;-48
2021/11/12 08:00:19;;;;;;;9.27;3.95;;;;;;;;;;5070809;28;20032;-55
2021/11/12 08:02:45;;;;;;;5.03;3.78;;;;;;;;;;5069688;28;20787;-53
2021/11/12 08:05:22;;;;;;;10.25;3.75;;;;;;;;;;5068507;28;20029;-52
2021/11/12 08:07:49;;;;;;;8.27;3.83;;;;;;;;;;5071212;28;20028;-54
2021/11/12 08:10:19;;;;;;;6.82;3.55;;;;;;;;;;5074581;28;20564;-49
2021/11/12 08:12:57;;;;;;;7.53;4.38;;;;;;;;;;5073872;28;20542;-49
2021/11/12 08:15:35;;;;;;;5.95;3.63;;;;;;;;;;5073998;28;20045;-61
2021/11/12 08:20:40;;;;;;;;;;;;;;;;;;5056466;28;20067;-48
2021/11/12 08:23:23;;;;;;;4.35;3.17;;;;;;;;;;5066042;28;19915;-50
2021/11/12 08:26:04;;;;;;;6.03;3.83;;;;;;;;;;5033952;28;20021;-55
2021/11/12 08:32:25;;;;;;;6.70;3.97;;;;;;;;;;5064479;28;20040;-50
2021/11/12 08:34:33;;;;;;;7.13;3.67;;;;;;;;;;5060833;28;20049;-59
2021/11/12 08:42:17;;;;;;;6.72;4.82;;;;;;;;;;5074559;28;20028;-53
2021/11/12 08:44:58;;;;;;;8.50;6.25;;;;;;;;;;5073294;28;20552;-53
2021/11/12 08:47:36;;;;;;;6.90;5.53;;;;;;;;;;5073205;28;20036;-59
2021/11/12 08:50:05;;;;;;;7.00;5.28;;;;;;;;;;5071665;28;20021;-52
2021/11/12 08:52:31;;;;;;;7.75;5.47;;;;;;;;;;5073201;28;20472;-51
2021/11/12 08:55:02;;;;;;;7.50;5.40;;;;;;;;;;5073900;28;20469;-53
2021/11/12 08:57:28;;;;;;;5.53;4.38;;;;;;;;;;5072603;28;20028;-54
2021/11/12 08:59:54;;;;;;;7.13;4.63;;;;;;;;;;5071655;28;20123;-50
2021/11/12 09:02:26;;;;;;;5.90;4.53;;;;;;;;;;5073807;28;20017;-53
2021/11/12 09:04:52;;;;;;;6.05;4.40;;;;;;;;;;5066579;28;20029;-53
2021/11/12 09:07:18;;;;;;;7.00;4.78;;;;;;;;;;5057313;28;20024;-49
2021/11/12 09:09:45;;;;;;;5.40;4.28;;;;;;;;;;5072130;28;20025;-50
2021/11/12 09:12:14;;;;;;;5.20;4.13;;;;;;;;;;5071248;28;20028;-50
2021/11/12 09:14:47;;;;;;;6.35;4.05;;;;;;;;;;5072293;28;20051;-51
2021/11/12 09:17:15;;;;;;;6.65;3.85;;;;;;;;;;5071567;28;20076;-52
2021/11/12 09:19:46;;;;;;;5.88;4.55;;;;;;;;;;5071386;28;20021;-54
2021/11/12 09:22:13;;;;;;;6.53;4.75;;;;;;;;;;5062516;28;20096;-50
2021/11/12 09:24:39;;;;;;;7.03;4.22;;;;;;;;;;5052012;28;20492;-50
2021/11/12 09:27:06;;;;;;;7.05;4.72;;;;;;;;;;5086177;28;20402;-53
2021/11/12 09:29:32;;;;;;;4.95;4.20;;;;;;;;;;5061676;28;20539;-51
2021/11/12 09:31:58;;;;;;;5.47;4.03;;;;;;;;;;5072921;28;20512;-53
2021/11/12 09:34:24;;;;;;;6.20;4.10;;;;;;;;;;5060665;28;20417;-57
2021/11/12 09:36:50;;;;;;;5.82;4.10;;;;;;;;;;5071358;28;20059;-49
2021/11/12 09:39:16;;;;;;;9.60;5.15;;;;;;;;;;5073016;28;20111;-52
2021/11/12 09:41:44;;;;;;;5.47;4.03;;;;;;;;;;5072037;28;20032;-56
2021/11/12 09:44:11;;;;;;;7.28;4.47;;;;;;;;;;5070606;28;20055;-50
2021/11/12 09:46:37;;;;;;;6.60;4.35;;;;;;;;;;5071793;28;20025;-50
2021/11/12 09:49:04;;;;;;;7.50;4.65;;;;;;;;;;5072021;28;20021;-52
2021/11/12 09:51:31;;;;;;;4.35;3.67;;;;;;;;;;5068535;28;20027;-53
2021/11/12 09:53:57;;;;;;;6.50;5.07;;;;;;;;;;5071287;28;20020;-52
2021/11/12 09:56:26;;;;;;;6.10;4.18;;;;;;;;;;5071657;28;20032;-50
2021/11/12 09:58:52;;;;;;;5.90;3.97;;;;;;;;;;5070842;28;20016;-54
2021/11/12 10:01:28;;;;;;;6.22;4.70;;;;;;;;;;5072075;28;20381;-50
2021/11/12 10:03:55;;;;;;;5.47;4.28;;;;;;;;;;5070977;28;20016;-55
2021/11/12 10:06:21;;;;;;;6.53;4.40;;;;;;;;;;5069688;28;20120;-49
2021/11/12 10:08:48;;;;;;;7.10;4.13;;;;;;;;;;5071334;28;20763;-51
2021/11/12 10:11:20;;;;;;;7.93;4.28;;;;;;;;;;5072497;28;20397;-51
2021/11/12 10:13:47;;;;;;;;;;;;;;;;;;5070191;28;20020;-51
2021/11/12 10:19:06;;;;;;;5.63;4.40;;;;;;;;;;5071625;28;20086;-53
2021/11/12 10:21:33;;;;;;;5.43;3.92;;;;;;;;;;5069518;28;20466;-55
2021/11/12 10:24:04;;;;;;;6.70;4.55;;;;;;;;;;5072080;28;20078;-52
2021/11/12 10:26:33;;;;;;;7.55;4.30;;;;;;;;;;5071384;28;20035;-51
2021/11/12 10:29:01;;;;;;;7.15;4.57;;;;;;;;;;5071576;28;20017;-53
2021/11/12 10:31:30;;;;;;;5.25;3.80;;;;;;;;;;5069883;28;20025;-57
2021/11/12 10:33:56;;;;;;;5.43;3.85;;;;;;;;;;5071578;28;20028;-55
2021/11/12 10:36:22;;;;;;;6.43;4.38;;;;;;;;;;5053221;28;20381;-51
2021/11/12 10:38:49;;;;;;;6.47;4.50;;;;;;;;;;5069738;28;20035;-51
2021/11/12 10:41:20;;;;;;;6.68;4.50;;;;;;;;;;5071461;28;20039;-54
2021/11/12 10:43:46;;;;;;;4.97;3.72;;;;;;;;;;5070748;28;20090;-54
2021/11/12 10:46:12;;;;;;;7.10;4.38;;;;;;;;;;5071777;28;20062;-54
2021/11/12 10:48:39;;;;;;;6.22;4.75;;;;;;;;;;5070729;28;20025;-52
2021/11/12 10:51:17;;;;;;;6.20;4.22;;;;;;;;;;5071686;28;20063;-51
2021/11/12 10:53:50;;;;;;;4.68;3.45;;;;;;;;;;5070478;28;20082;-52
2021/11/12 10:56:17;;;;;;;8.63;4.40;;;;;;;;;;5071291;28;20029;-52
2021/11/12 10:58:59;;;;;;;6.45;4.70;;;;;;;;;;5070215;28;20060;-51
2021/11/12 11:01:35;;;;;;;7.03;4.25;;;;;;;;;;5071286;28;20024;-58
2021/11/12 11:04:21;;;;;;;6.43;4.07;;;;;;;;;;5071046;28;20107;-53
2021/11/12 11:06:48;;;;;;;6.40;3.97;;;;;;;;;;5052713;28;20028;-49
2021/11/12 11:09:14;;;;;;;7.15;4.63;;;;;;;;;;5071037;28;20104;-51
2021/11/12 11:11:44;;;;;;;6.65;4.18;;;;;;;;;;5070546;28;20059;-49
2021/11/12 11:14:30;;;;;;;6.82;4.10;;;;;;;;;;5030467;28;20044;-53
2021/11/12 11:17:17;;;;;;;8.10;4.20;;;;;;;;;;5026997;28;20037;-56
2021/11/12 11:19:43;;;;;;;5.75;4.28;;;;;;;;;;5056633;28;20037;-51
2021/11/12 11:22:12;;;;;;;5.90;4.20;;;;;;;;;;5065222;28;20023;-51
2021/11/12 11:24:38;;;;;;;6.80;4.85;;;;;;;;;;5050057;28;20021;-49
2021/11/12 11:27:04;;;;;;;5.28;4.60;;;;;;;;;;5050967;28;20029;-51
2021/11/12 11:29:31;;;;;;;4.40;3.60;;;;;;;;;;5066540;28;20024;-52
2021/11/12 11:31:58;;;;;;;8.15;4.63;;;;;;;;;;5070801;28;20063;-53
2021/11/12 11:34:25;;;;;;;5.78;4.20;;;;;;;;;;5069740;28;20040;-57
2021/11/12 11:36:55;;;;;;;7.60;4.43;;;;;;;;;;5070307;28;20037;-50
2021/11/12 11:39:21;;;;;;;7.00;4.88;;;;;;;;;;5071097;28;20025;-49
2021/11/12 11:41:48;;;;;;;5.50;4.20;;;;;;;;;;5069202;28;20036;-51
2021/11/12 11:44:15;;;;;;;5.47;3.85;;;;;;;;;;5070518;28;20045;-52
2021/11/12 11:46:44;;;;;;;6.95;3.92;;;;;;;;;;5069491;28;20029;-48
2021/11/12 11:49:12;;;;;;;8.15;4.00;;;;;;;;;;5064057;28;20021;-48
2021/11/12 11:51:40;;;;;;;7.93;4.47;;;;;;;;;;5069758;28;20025;-50
2021/11/12 11:54:06;;;;;;;5.95;4.03;;;;;;;;;;5070617;28;20888;-51
2021/11/12 11:56:42;;;;;;;6.95;4.20;;;;;;;;;;5070165;28;20032;-48
2021/11/12 11:59:09;;;;;;;5.82;4.10;;;;;;;;;;5070591;28;20062;-51
2021/11/12 12:01:37;;;;;;;5.00;4.25;;;;;;;;;;5068332;28;20033;-53
2021/11/12 12:04:09;;;;;;;6.00;4.35;;;;;;;;;;5070831;28;20039;-49
2021/11/12 12:06:36;;;;;;;6.63;4.45;;;;;;;;;;5070080;28;20385;-53
2021/11/12 12:09:08;;;;;;;4.72;3.63;;;;;;;;;;5070366;28;20440;-52
2021/11/12 12:11:42;;;;;;;6.93;4.47;;;;;;;;;;5069621;28;20025;-54
2021/11/12 12:14:27;;;;;;;6.40;4.72;;;;;;;;;;5057974;28;20033;-51
2021/11/12 12:17:03;;;;;;;6.50;5.20;;;;;;;;;;5048948;28;20036;-52
2021/11/12 12:19:47;;;;;;;4.90;4.40;;;;;;;;;;5049829;28;20020;-59
2021/11/12 12:30:52;;;;;;;6.13;4.55;;;;;;;;;;5051691;28;20020;-52
2021/11/12 13:19:47;;;;;;;21.40;14.80;;;;;;;;;;5051268;28;20048;-55
2021/11/12 13:27:01;;;;;;;26.90;18.23;;;;;;;;;;5073305;28;20036;-57
2021/11/12 13:29:30;;;;;;;24.55;17.23;;;;;;;;;;5072856;28;20029;-57
2021/11/12 13:32:04;;;;;;;26.25;18.00;;;;;;;;;;5073285;28;20052;-55
2021/11/12 13:34:31;;;;;;;29.70;19.23;;;;;;;;;;5072102;28;20497;-57
2021/11/12 13:36:57;;;;;;;27.15;18.08;;;;;;;;;;5072983;28;20436;-54
2021/11/12 13:39:23;;;;;;;29.13;20.48;;;;;;;;;;5072926;28;20042;-55
2021/11/12 13:41:59;;;;;;;25.33;17.92;;;;;;;;;;5071883;28;20067;-54
2021/11/12 13:44:31;;;;;;;26.55;19.42;;;;;;;;;;5072463;28;20572;-57
2021/11/12 13:46:57;;;;;;;;;;;;;;;;;;5072220;28;20040;-54
2021/11/12 13:49:28;;;;;;;29.90;19.38;;;;;;;;;;5072990;28;19912;-55
2021/11/12 13:51:59;;;;;;;23.15;16.50;;;;;;;;;;5060431;28;20508;-53
2021/11/12 13:54:25;;;;;;;23.13;15.05;;;;;;;;;;5066518;28;20478;-57
2021/11/12 13:56:51;;;;;;;20.40;13.80;;;;;;;;;;5072216;28;20025;-57
2021/11/12 13:59:17;;;;;;;17.45;11.93;;;;;;;;;;5072450;28;20385;-56
2021/11/12 14:01:43;;;;;;;16.17;11.73;;;;;;;;;;5070555;28;20076;-55
2021/11/12 14:04:26;;;;;;;21.33;13.15;;;;;;;;;;5072146;28;20025;-55
2021/11/12 14:06:53;;;;;;;20.40;12.43;;;;;;;;;;5072138;28;20032;-56
2021/11/12 14:09:20;;;;;;;16.33;11.63;;;;;;;;;;5072405;28;20021;-55
2021/11/12 14:11:47;;;;;;;16.23;11.05;;;;;;;;;;5071735;28;20202;-55
2021/11/12 14:14:19;;;;;;;14.18;10.38;;;;;;;;;;5072276;28;20025;-54
2021/11/12 14:16:53;;;;;;;15.68;10.88;;;;;;;;;;5070267;28;20895;-56
2021/11/12 14:21:53;;;;;;;13.52;10.02;;;;;;;;;;5066905;28;20049;-48
2021/11/12 14:24:39;;;;;;;13.50;10.07;;;;;;;;;;5064548;28;20029;-46
2021/11/12 14:27:21;;;;;;;13.43;9.60;;;;;;;;;;5072348;28;20020;-46
2021/11/12 14:40:39;;;;;;;14.10;9.90;;;;;;;;;;5071768;28;20039;-46
2021/11/12 14:43:34;;;;;;;12.93;9.20;;;;;;;;;;5071449;28;20496;-46
2021/11/12 14:46:18;;;;;;;12.65;9.10;;;;;;;;;;5068844;28;20123;-46
2021/11/12 14:49:04;;;;;;;13.00;8.90;;;;;;;;;;5061373;28;20107;-48
2021/11/12 14:52:00;;;;;;;11.98;8.90;;;;;;;;;;5070600;28;20038;-55
2021/11/12 14:54:48;;;;;;;10.77;8.32;;;;;;;;;;5071084;28;20035;-57
2021/11/12 14:59:52;;;;;;;12.05;9.13;;;;;;;;;;5070885;28;20032;-46
2021/11/12 15:02:19;;;;;;;11.27;7.88;;;;;;;;;;5053203;28;20024;-53
2021/11/12 15:04:45;;;;;;;10.88;8.10;;;;;;;;;;5062499;28;20028;-48
2021/11/12 15:07:14;;;;;;;10.15;7.63;;;;;;;;;;5053569;28;20111;-46
2021/11/12 15:09:41;;;;;;;13.35;8.25;;;;;;;;;;5070458;28;20465;-46
2021/11/12 15:12:09;;;;;;;10.32;7.80;;;;;;;;;;5071413;28;20016;-47
2021/11/12 15:14:39;;;;;;;10.38;8.00;;;;;;;;;;5070426;28;20093;-46
2021/11/12 15:17:07;;;;;;;10.38;7.32;;;;;;;;;;5065464;28;20102;-46
2021/11/12 15:19:35;;;;;;;10.25;7.10;;;;;;;;;;5065500;28;20039;-46
2021/11/12 15:24:43;;;;;;;10.48;7.43;;;;;;;;;;5059242;28;20032;-45
2021/11/12 15:27:26;;;;;;;10.55;7.40;;;;;;;;;;5069154;28;20024;-46
2021/11/12 15:30:02;;;;;;;11.07;7.88;;;;;;;;;;5057903;28;20021;-46
2021/11/12 15:32:34;;;;;;;9.82;6.70;;;;;;;;;;5050480;28;20466;-58
2021/11/12 15:35:15;;;;;;;10.05;7.13;;;;;;;;;;5062617;28;20128;-50
2021/11/12 15:37:54;;;;;;;;;;;;;;;;;;5070333;28;20045;-46
2021/11/12 15:40:23;;;;;;;12.93;7.15;;;;;;;;;;5070885;28;19909;-51
2021/11/12 15:43:01;;;;;;;8.95;7.13;;;;;;;;;;5070087;28;20099;-47
2021/11/12 15:48:15;;;;;;;9.95;6.40;;;;;;;;;;5059505;28;20044;-47
2021/11/12 15:53:46;;;;;;;9.65;6.63;;;;;;;;;;5030573;28;20394;-48
2021/11/12 15:56:34;;;;;;;8.57;6.63;;;;;;;;;;5072006;28;20090;-50
2021/11/12 16:09:37;;;;;;;7.78;6.07;;;;;;;;;;5070292;28;20029;-60
2021/11/12 16:25:22;;;;;;;6.35;5.10;;;;;;;;;;5065778;28;20505;-46
2021/11/12 16:27:50;;;;;;;9.00;6.63;;;;;;;;;;5069534;28;20024;-48
2021/11/12 16:30:19;;;;;;;11.48;6.53;;;;;;;;;;5073739;28;20428;-47
2021/11/12 16:32:50;;;;;;;10.13;6.13;;;;;;;;;;5073741;28;20111;-53
2021/11/12 16:35:19;;;;;;;7.30;5.82;;;;;;;;;;5073573;28;20059;-47
2021/11/12 16:37:48;;;;;;;8.45;5.82;;;;;;;;;;5073164;28;20040;-53
2021/11/12 16:40:20;;;;;;;7.93;5.53;;;;;;;;;;5074243;28;20020;-47
2021/11/12 16:47:52;;;;;;;7.45;5.68;;;;;;;;;;5073151;28;20033;-50
2021/11/12 16:50:43;;;;;;;5.97;5.05;;;;;;;;;;5074004;28;20013;-47
2021/11/12 16:58:34;;;;;;;7.65;5.93;;;;;;;;;;5073915;28;20562;-49
2021/11/12 17:06:42;;;;;;;7.15;5.43;;;;;;;;;;5061326;28;20039;-50
2021/11/12 17:09:31;;;;;;;6.68;5.40;;;;;;;;;;5073594;28;20107;-53
2021/11/12 17:14:50;;;;;;;6.10;4.75;;;;;;;;;;5073672;28;20035;-49
2021/11/12 17:47:26;;;;;;;6.13;4.75;;;;;;;;;;5060098;28;20055;-47
2021/11/12 18:03:28;;;;;;;5.90;4.97;;;;;;;;;;5072548;28;20044;-46
2021/11/12 18:11:43;;;;;;;6.25;4.60;;;;;;;;;;5032482;28;20038;-47
2021/11/12 18:15:01;;;;;;;5.38;4.05;;;;;;;;;;5040754;28;20028;-47
2021/11/12 21:46:23;;;;;;;5.80;5.15;;;;;;;;;;5048336;28;20037;-51
2021/11/12 21:49:00;;;;;;;5.90;4.55;;;;;;;;;;5032336;28;20099;-46
2021/11/12 21:51:29;;;;;;;5.65;4.32;;;;;;;;;;5033114;28;20034;-46
2021/11/12 21:53:57;;;;;;;6.20;4.07;;;;;;;;;;5047361;28;20040;-50
2021/11/12 21:56:24;;;;;;;5.60;4.65;;;;;;;;;;5052655;28;20025;-46
2021/11/12 21:58:50;;;;;;;5.47;4.60;;;;;;;;;;5050387;28;20625;-46
2021/11/12 22:01:17;;;;;;;5.18;4.05;;;;;;;;;;5052849;28;20031;-48
2021/11/12 22:03:43;;;;;;;5.93;4.60;;;;;;;;;;5038472;28;20104;-45
2021/11/12 22:06:09;;;;;;;4.95;3.92;;;;;;;;;;5036244;28;20518;-47
2021/11/12 22:08:35;;;;;;;5.10;3.88;;;;;;;;;;5051824;28;20031;-46
2021/11/12 22:11:05;;;;;;;5.30;4.38;;;;;;;;;;5052567;28;20074;-46
2021/11/12 22:13:31;;;;;;;7.88;4.22;;;;;;;;;;5040535;28;20409;-58
2021/11/12 22:15:57;;;;;;;4.93;4.43;;;;;;;;;;5032659;28;20033;-50
2021/11/12 22:18:23;;;;;;;6.43;4.10;;;;;;;;;;5032396;28;20044;-49
2021/11/12 22:20:50;;;;;;;5.28;3.88;;;;;;;;;;5031730;28;20041;-46
2021/11/12 22:23:19;;;;;;;5.72;4.45;;;;;;;;;;5048313;28;20470;-46
2021/11/12 22:25:45;;;;;;;4.93;3.70;;;;;;;;;;5051313;28;20025;-45
2021/11/12 22:28:11;;;;;;;4.75;4.07;;;;;;;;;;5039106;28;20104;-45
2021/11/12 22:30:38;;;;;;;5.65;4.50;;;;;;;;;;5031541;28;20021;-49
2021/11/12 22:33:06;;;;;;;5.35;4.05;;;;;;;;;;5039355;28;20032;-46
2021/11/12 22:35:32;;;;;;;4.55;4.13;;;;;;;;;;5051557;28;20462;-58
2021/11/12 22:37:59;;;;;;;5.78;4.25;;;;;;;;;;5051939;28;20033;-48
2021/11/12 22:40:25;;;;;;;5.15;4.32;;;;;;;;;;5052129;28;20021;-45
2021/11/12 22:42:51;;;;;;;6.15;4.20;;;;;;;;;;5044370;28;20933;-45
2021/11/12 22:45:17;;;;;;;7.03;4.40;;;;;;;;;;5032193;28;20104;-45
2021/11/12 22:47:44;;;;;;;5.60;4.68;;;;;;;;;;5031348;28;20417;-46
2021/11/12 22:50:11;;;;;;;7.22;4.15;;;;;;;;;;5031921;28;20032;-46
2021/11/12 22:52:37;;;;;;;5.53;4.30;;;;;;;;;;5033954;28;20036;-46
2021/11/12 22:55:03;;;;;;;5.82;4.55;;;;;;;;;;5051631;28;20414;-45
2021/11/12 22:57:36;;;;;;;5.65;4.20;;;;;;;;;;5040583;28;20033;-58
2021/11/12 23:00:05;;;;;;;5.40;4.40;;;;;;;;;;5046516;28;20044;-46
2021/11/12 23:02:33;;;;;;;5.28;4.13;;;;;;;;;;5049002;28;20025;-58
2021/11/12 23:05:01;;;;;;;4.88;3.65;;;;;;;;;;5031715;28;20064;-45
2021/11/12 23:07:27;;;;;;;5.88;4.10;;;;;;;;;;5031673;28;20041;-45
2021/11/12 23:09:53;;;;;;;5.10;3.83;;;;;;;;;;5030689;28;20168;-46
2021/11/12 23:12:19;;;;;;;5.95;4.40;;;;;;;;;;5031180;28;20032;-45
2021/11/12 23:14:45;;;;;;;5.03;4.03;;;;;;;;;;5050470;28;20466;-46
2021/11/12 23:17:11;;;;;;;5.55;4.38;;;;;;;;;;5051286;28;20036;-49
2021/11/12 23:19:37;;;;;;;5.45;3.78;;;;;;;;;;5050137;28;20029;-46
2021/11/12 23:22:03;;;;;;;5.90;4.22;;;;;;;;;;5051051;28;20382;-50
2021/11/12 23:24:31;;;;;;;4.25;3.50;;;;;;;;;;5050483;28;20032;-57
2021/11/12 23:26:57;;;;;;;5.13;4.15;;;;;;;;;;5044280;28;20022;-47
2021/11/12 23:29:23;;;;;;;3.97;3.38;;;;;;;;;;5030999;28;20108;-47
2021/11/12 23:31:49;;;;;;;5.18;4.18;;;;;;;;;;5030537;28;20141;-47
2021/11/12 23:34:15;;;;;;;4.88;3.65;;;;;;;;;;5045943;28;20047;-45
2021/11/12 23:36:41;;;;;;;5.15;3.80;;;;;;;;;;5050339;28;20087;-45
2021/11/12 23:39:07;;;;;;;4.20;3.40;;;;;;;;;;5050432;28;20028;-47
2021/11/12 23:41:33;;;;;;;4.57;3.53;;;;;;;;;;5050325;28;20036;-61
2021/11/12 23:43:59;;;;;;;4.72;3.60;;;;;;;;;;5037670;28;20029;-49
2021/11/12 23:46:25;;;;;;;4.32;3.55;;;;;;;;;;5030995;28;20057;-50
2021/11/12 23:48:51;;;;;;;5.38;3.60;;;;;;;;;;5030442;28;20056;-51
2021/11/12 23:51:17;;;;;;;3.97;3.38;;;;;;;;;;5031022;28;20125;-48
2021/11/12 23:53:44;;;;;;;5.03;3.50;;;;;;;;;;5040180;28;20688;-48
2021/11/12 23:56:10;;;;;;;5.53;4.03;;;;;;;;;;5050884;28;20064;-47
2021/11/12 23:58:36;;;;;;;4.07;3.50;;;;;;;;;;5050268;28;20025;-47
